createdAt,value
2017-11-08T00:00:40.731Z,19.30
2017-11-08T00:10:44.012Z,18.00
2017-11-08T00:20:47.209Z,18.80
2017-11-08T00:30:50.569Z,17.57
2017-11-08T00:40:53.767Z,17.43
2017-11-08T00:50:57.031Z,17.70
2017-11-08T01:01:00.257Z,18.37
2017-11-08T01:11:03.492Z,20.97
2017-11-08T01:21:06.710Z,17.30
2017-11-08T01:31:09.900Z,17.73
2017-11-08T01:41:18.955Z,19.83
2017-11-08T01:51:23.062Z,19.23
2017-11-08T02:01:27.037Z,20.43
2017-11-08T02:11:30.239Z,18.37
2017-11-08T02:21:33.455Z,19.50
2017-11-08T02:31:36.634Z,20.30
2017-11-08T02:41:40.606Z,19.37
2017-11-08T02:51:43.804Z,18.60
2017-11-08T03:01:47.008Z,17.10
2017-11-08T03:11:50.843Z,17.67
2017-11-08T03:21:54.037Z,19.97
2017-11-08T03:31:57.246Z,19.90
2017-11-08T03:42:00.436Z,18.37
2017-11-08T03:52:04.410Z,19.80
2017-11-08T04:02:07.585Z,19.30
2017-11-08T04:12:10.791Z,19.00
2017-11-08T04:22:13.973Z,19.05
2017-11-08T04:32:17.172Z,21.60
2017-11-08T04:42:20.382Z,18.90
2017-11-08T04:52:24.338Z,21.40
2017-11-08T05:02:27.570Z,18.93
2017-11-08T05:12:31.579Z,21.00
2017-11-08T05:22:34.846Z,21.93
2017-11-08T05:32:38.098Z,23.40
2017-11-08T05:42:42.442Z,21.33
2017-11-08T05:52:45.649Z,22.03
2017-11-08T06:02:48.843Z,22.37
2017-11-08T06:12:52.813Z,22.57
2017-11-08T06:22:56.127Z,23.35
2017-11-08T06:32:59.490Z,22.10
2017-11-08T06:43:03.472Z,24.17
2017-11-08T06:53:06.682Z,25.20
2017-11-08T07:03:10.668Z,26.23
2017-11-08T07:13:13.847Z,24.07
2017-11-08T07:23:17.062Z,23.00
2017-11-08T07:33:20.269Z,24.95
2017-11-08T07:43:23.471Z,24.17
2017-11-08T07:53:26.682Z,24.20
2017-11-08T08:03:29.870Z,22.67
2017-11-08T08:13:33.190Z,40.23
2017-11-08T08:23:37.188Z,24.27
2017-11-08T08:33:40.410Z,23.70
2017-11-08T08:43:43.684Z,26.90
2017-11-08T08:53:46.932Z,23.60
2017-11-08T09:03:50.328Z,27.90
2017-11-08T09:13:53.601Z,26.07
2017-11-08T09:23:59.670Z,27.30
2017-11-08T09:34:02.906Z,27.67
2017-11-08T09:44:06.878Z,27.23
2017-11-08T09:54:10.106Z,27.07
2017-11-08T10:04:13.341Z,26.93
2017-11-08T10:14:16.546Z,26.80
2017-11-08T10:24:19.807Z,28.07
2017-11-08T10:34:23.790Z,49.40
2017-11-08T10:44:27.028Z,29.53
2017-11-08T10:54:30.987Z,32.27
2017-11-08T11:04:34.200Z,29.57
2017-11-08T11:14:37.472Z,28.17
2017-11-08T11:24:41.644Z,29.70
2017-11-08T11:34:44.817Z,30.23
2017-11-08T11:44:48.023Z,31.83
2017-11-08T11:54:51.206Z,33.53
2017-11-08T12:04:54.391Z,32.30
2017-11-08T12:14:57.599Z,32.90
2017-11-08T12:25:00.792Z,33.07
2017-11-08T12:35:06.860Z,37.07
2017-11-08T12:45:16.243Z,34.10
2017-11-08T12:55:19.424Z,33.73
2017-11-08T13:05:34.967Z,33.23
2017-11-08T13:15:38.391Z,37.50
2017-11-08T13:25:41.571Z,37.93
2017-11-08T13:35:44.765Z,36.03
2017-11-08T13:45:49.748Z,38.40
2017-11-08T13:55:52.899Z,36.10
2017-11-08T14:05:56.865Z,37.17
2017-11-08T14:16:00.076Z,36.60
2017-11-08T14:26:03.314Z,35.03
2017-11-08T14:36:09.414Z,37.67
2017-11-08T14:46:12.624Z,37.00
2017-11-08T14:56:15.823Z,36.22
2017-11-08T15:06:19.028Z,39.20
2017-11-08T15:16:22.253Z,39.10
2017-11-08T15:26:25.615Z,37.27
2017-11-08T15:36:28.811Z,38.85
2017-11-08T15:46:32.116Z,41.87
2017-11-08T15:56:36.089Z,37.57
2017-11-08T16:06:39.311Z,38.40
2017-11-08T16:16:43.276Z,37.63
2017-11-08T16:26:46.491Z,37.37
2017-11-08T16:36:49.746Z,37.17
2017-11-08T16:46:53.708Z,33.83
2017-11-08T16:56:57.043Z,33.47
2017-11-08T17:07:01.018Z,37.67
2017-11-08T17:17:04.228Z,37.90
2017-11-08T17:27:08.253Z,43.87
2017-11-08T17:37:11.424Z,42.37
2017-11-08T17:47:15.495Z,40.23
2017-11-08T17:57:18.745Z,34.53
2017-11-08T18:07:21.940Z,36.43
2017-11-08T18:17:25.163Z,51.10
2017-11-08T18:27:28.393Z,28.70
2017-11-08T18:37:31.619Z,25.87
2017-11-08T18:47:34.848Z,25.40
2017-11-08T18:57:38.245Z,26.67
2017-11-08T19:07:41.480Z,25.33
2017-11-08T19:17:44.732Z,25.20
2017-11-08T19:27:48.721Z,26.00
2017-11-08T19:37:51.968Z,31.50
2017-11-08T19:47:55.184Z,26.17
2017-11-08T19:57:58.413Z,25.48
2017-11-08T20:08:01.621Z,26.37
2017-11-08T20:18:04.813Z,27.77
2017-11-08T20:28:08.055Z,28.00
2017-11-08T20:38:11.295Z,30.53
2017-11-08T20:48:14.704Z,26.92
2017-11-08T20:58:18.765Z,29.23
2017-11-08T21:08:22.004Z,29.50
2017-11-08T21:18:26.072Z,34.20
2017-11-08T21:28:29.313Z,32.58
2017-11-08T21:38:32.653Z,31.33
2017-11-08T21:48:35.859Z,43.07
2017-11-08T21:58:39.054Z,35.10
2017-11-08T22:08:42.274Z,29.53
2017-11-08T22:18:45.499Z,29.80
2017-11-08T22:28:48.882Z,27.30
2017-11-08T22:38:52.088Z,30.53
2017-11-08T22:48:55.303Z,28.43
2017-11-08T22:58:59.252Z,29.77
2017-11-08T23:09:03.190Z,31.90
2017-11-08T23:19:06.494Z,28.00
2017-11-08T23:29:09.678Z,27.33
2017-11-08T23:39:13.827Z,29.97
2017-11-08T23:49:17.788Z,27.02
2017-11-08T23:59:27.428Z,26.50
